Latest Weather Observations for Wynyard

IDT60801

Issued at 5:21 am EST Sunday 22 September 2019 (issued every 10 minutes, with the page automatically refreshed every 10 minutes)

About weather observations | Map of weather stations | Latest weather observations for TAS | Other Formats
Station Details ID: 091107 Name: WYNYARD AIRPORT Lat: -41.00 Lon: 145.73 Height: 12.0 m
Data from the previous 72 hours. | See also: Recent months at Wynyard
Date/Time
EST
Temp
°C
App
Temp
°C
Dew
Point
°C
Rel
Hum
%
Delta-T
°C
Wind Press
QNH
hPa
Press
MSL
hPa
Rain since
9am
mm
Dir  Spd
km/h
Gust
km/h
Spd
kts
Gust
kts
22/05:00am 4.3 2.9 3.3 93 0.4 CALM 0 0 0 0 1016.1 1016.2 1.6
22/04:30am 4.5 3.1 3.3 92 0.5 CALM 0 0 0 0 1015.8 1015.9 1.6
22/04:00am 4.6 1.8 3.1 90 0.6 W 7 9 4 5 1015.6 1015.7 1.6
22/03:30am 5.0 1.9 3.5 90 0.6 WNW 9 13 5 7 1015.2 1015.3 1.6
22/03:00am 5.4 1.9 3.3 86 0.9 W 11 15 6 8 1014.9 1015.0 1.6
22/02:30am 6.5 1.4 4.0 84 1.1 W 20 30 11 16 1014.9 1015.0 1.6
22/02:00am 6.2 2.5 4.5 89 0.7 WNW 13 20 7 11 1014.6 1014.7 1.6
22/01:30am 6.7 3.1 5.0 89 0.7 NW 13 17 7 9 1014.7 1014.8 1.6
22/01:00am 6.0 2.3 4.2 88 0.8 W 13 15 7 8 1014.5 1014.6 1.6
22/12:30am 7.0 2.2 4.8 86 1.0 WNW 19 24 10 13 1014.2 1014.3 1.6
22/12:00am 7.5 2.6 5.1 85 1.1 W 20 26 11 14 1013.8 1013.9 1.6
 
Date/Time
EST
Temp
°C
App
Temp
°C
Dew
Point
°C
Rel
Hum
%
Delta-T
°C
Wind Press
QNH
hPa
Press
MSL
hPa
Rain since
9am
mm
Dir  Spd
km/h
Gust
km/h
Spd
kts
Gust
kts
21/11:30pm 7.7 2.8 5.2 84 1.1 W 20 30 11 16 1013.4 1013.5 1.6
21/11:00pm 7.5 2.7 4.8 83 1.2 WNW 19 22 10 12 1013.2 1013.3 1.6
21/10:30pm 7.6 2.7 4.9 83 1.2 W 20 28 11 15 1012.8 1012.9 1.6
21/10:00pm 7.7 2.8 5.3 85 1.1 W 20 28 11 15 1012.8 1012.9 1.6
21/09:30pm 8.2 2.6 5.3 82 1.3 W 24 32 13 17 1012.3 1012.4 1.6
21/09:00pm 8.3 3.1 5.6 83 1.2 W 22 28 12 15 1011.9 1012.0 1.6
21/08:30pm 8.4 2.8 5.5 82 1.3 W 24 32 13 17 1011.2 1011.3 1.6
21/08:00pm 8.9 2.6 5.8 81 1.4 W 28 41 15 22 1010.6 1010.7 1.6
21/07:32pm 9.0 2.3 5.7 80 1.5 W 30 48 16 26 1010.0 1010.1 1.6
21/07:30pm 9.1 2.1 5.8 80 1.5 W 32 48 17 26 1010.0 1010.1 1.6
21/07:00pm 9.7 3.1 6.2 79 1.6 W 30 41 16 22 1009.4 1009.5 1.6
21/06:30pm 9.7 5.3 7.3 85 1.1 W 20 28 11 15 1008.7 1008.8 1.6
21/06:00pm 10.0 3.2 7.1 82 1.4 W 32 41 17 22 1007.8 1007.9 1.6
21/05:30pm 10.5 3.7 6.8 78 1.7 W 32 43 17 23 1007.0 1007.1 1.6
21/05:00pm 11.8 5.0 7.7 76 2.0 W 33 52 18 28 1006.0 1006.1 1.6
21/04:30pm 11.9 4.8 8.0 77 1.9 WNW 35 56 19 30 1004.9 1004.9 1.6
21/04:01pm 13.0 6.1 8.7 75 2.2 W 35 54 19 29 1004.0 1004.0 1.6
21/04:00pm 13.1 6.2 9.0 76 2.1 W 35 48 19 26 1004.0 1004.0 1.6
21/03:43pm 12.8 6.7 9.6 81 1.6 W 32 43 17 23 1003.3 1003.3 1.6
21/03:30pm 13.0 5.4 10.4 84 1.3 WNW 41 65 22 35 1002.9 1002.9 1.6
21/03:24pm 13.2 8.4 11.6 90 0.9 NW 28 61 15 33 1002.9 1002.9 1.6
21/03:00pm 12.9 8.5 11.8 93 0.6 NNW 26 43 14 23 1003.0 1003.0 1.6
21/02:39pm 12.8 9.2 11.7 93 0.6 NNW 22 35 12 19 1003.6 1003.6 1.6
21/02:30pm 13.0 9.7 11.6 91 0.7 NNW 20 33 11 18 1003.6 1003.6 1.6
21/02:27pm 13.0 9.3 11.6 91 0.7 NNW 22 33 12 18 1003.5 1003.5 1.2
21/02:25pm 13.2 9.6 11.8 91 0.7 N 22 33 12 18 1003.6 1003.6 1.2
21/02:19pm 13.3 10.7 11.9 91 0.7 NNE 17 28 9 15 1003.9 1003.9 0.8
21/02:00pm 13.5 11.3 12.2 92 0.7 ENE 15 20 8 11 1003.6 1003.6 0.4
21/01:42pm 13.7 11.1 12.1 90 0.9 E 17 24 9 13 1003.4 1003.4 0.2
21/01:30pm 14.0 11.8 12.0 88 1.1 E 15 19 8 10 1003.6 1003.6 0.0
21/01:00pm 14.3 11.8 12.3 88 1.1 E 17 24 9 13 1003.6 1003.6 0.0
21/12:30pm 14.2 10.7 12.1 87 1.1 E 22 30 12 16 1004.0 1004.0 0.0
21/12:00pm 14.4 10.4 11.9 85 1.4 ESE 24 32 13 17 1003.4 1003.4 0.0
21/11:30am 14.5 9.8 12.0 85 1.4 E 28 35 15 19 1004.4 1004.4 0.0
21/11:00am 14.7 9.3 12.2 85 1.4 E 32 39 17 21 1004.7 1004.7 0.0
21/10:30am 14.9 9.9 12.2 84 1.5 ESE 30 37 16 20 1004.8 1004.8 0.0
21/10:00am 15.0 9.5 12.3 84 1.5 ESE 33 41 18 22 1005.4 1005.4 0.0
21/09:30am 15.3 9.7 12.2 82 1.7 E 33 46 18 25 1006.1 1006.2 0.0
21/09:00am 15.1 9.5 12.2 83 1.6 ESE 33 43 18 23 1006.5 1006.6 0.0
21/08:30am 15.1 10.5 12.2 83 1.6 ESE 28 35 15 19 1006.9 1007.0 0.0
21/08:00am 15.4 10.3 12.0 80 1.9 ESE 30 39 16 21 1006.9 1007.0 0.0
21/07:30am 15.4 10.4 12.2 81 1.7 ESE 30 39 16 21 1007.2 1007.3 0.0
21/07:00am 15.1 10.1 12.2 83 1.6 ESE 30 41 16 22 1007.2 1007.3 0.0
21/06:30am 14.8 9.4 12.3 85 1.4 ESE 32 41 17 22 1007.3 1007.4 0.0
21/06:00am 14.6 9.1 12.3 86 1.3 ESE 33 44 18 24 1007.6 1007.7 0.0
21/05:40am 14.6 8.7 12.3 86 1.3 ESE 35 54 19 29 1007.6 1007.7 0.0
21/05:31am 14.8 8.9 12.5 86 1.3 ESE 35 50 19 27 1007.7 1007.8 0.0
21/05:30am 14.8 8.9 12.5 86 1.3 ESE 35 50 19 27 1007.6 1007.7 0.0
21/05:00am 14.7 9.4 12.6 87 1.2 ESE 32 43 17 23 1008.1 1008.2 0.0
21/04:30am 14.9 10.0 12.6 86 1.3 ESE 30 41 16 22 1008.4 1008.5 0.0
21/04:00am 15.1 10.2 12.6 85 1.4 E 30 37 16 20 1008.9 1009.0 0.0
21/03:30am 15.2 11.6 12.9 86 1.3 ESE 24 33 13 18 1009.1 1009.2 0.0
21/03:00am 14.9 10.4 12.6 86 1.3 ESE 28 44 15 24 1009.4 1009.5 0.0
21/02:30am 14.9 10.0 12.4 85 1.4 ESE 30 39 16 21 1010.2 1010.3 0.0
21/02:00am 14.9 9.6 12.4 85 1.4 ESE 32 43 17 23 1010.8 1010.9 0.0
21/01:30am 14.8 9.4 12.3 85 1.4 ESE 32 39 17 21 1011.0 1011.1 0.0
21/01:00am 14.8 9.8 12.3 85 1.4 ESE 30 39 16 21 1012.3 1012.4 0.0
21/12:30am 14.5 10.2 12.2 86 1.2 ESE 26 35 14 19 1012.7 1012.8 0.0
21/12:18am 14.4 9.7 12.1 86 1.2 ESE 28 39 15 21 1012.9 1013.0 0.0
21/12:00am 14.8 10.3 12.5 86 1.3 E 28 37 15 20 1013.2 1013.3 0.0
 
Date/Time
EST
Temp
°C
App
Temp
°C
Dew
Point
°C
Rel
Hum
%
Delta-T
°C
Wind Press
QNH
hPa
Press
MSL
hPa
Rain since
9am
mm
Dir  Spd
km/h
Gust
km/h
Spd
kts
Gust
kts
20/11:30pm 14.6 10.1 12.5 87 1.1 ESE 28 37 15 20 1013.6 1013.7 0.0
20/11:00pm 14.5 9.9 12.4 87 1.1 ESE 28 37 15 20 1014.1 1014.2 0.0
20/10:30pm 14.4 10.6 12.4 88 1.1 ESE 24 39 13 21 1014.6 1014.7 0.0
20/10:00pm 14.7 11.6 12.2 85 1.4 ESE 20 35 11 19 1014.8 1014.9 0.0
20/09:30pm 14.5 10.9 12.0 85 1.4 ESE 22 28 12 15 1015.2 1015.3 0.0
20/09:00pm 14.2 11.5 11.7 85 1.3 ESE 17 22 9 12 1015.4 1015.5 0.0
20/08:30pm 13.7 10.3 11.4 86 1.2 ESE 20 24 11 13 1015.3 1015.4 0.0
20/08:00pm 13.7 10.9 11.4 86 1.2 ESE 17 26 9 14 1015.6 1015.7 0.0
20/07:30pm 12.9 10.6 10.6 86 1.2 ESE 13 17 7 9 1015.8 1015.9 0.0
20/07:00pm 13.6 11.8 10.8 83 1.5 SE 11 15 6 8 1015.4 1015.5 0.0
20/06:30pm 13.8 11.7 11.1 84 1.4 ESE 13 20 7 11 1015.1 1015.2 0.0
20/06:00pm 14.2 10.8 11.4 83 1.5 ESE 20 28 11 15 1015.1 1015.2 0.0
20/05:30pm 14.4 10.7 11.6 83 1.5 ESE 22 28 12 15 1015.2 1015.3 0.0
20/05:00pm 14.6 10.3 11.9 84 1.5 E 26 35 14 19 1015.3 1015.4 0.0
20/04:30pm 14.6 11.4 11.9 84 1.5 E 20 30 11 16 1015.3 1015.4 0.0
20/04:00pm 14.9 10.2 12.0 83 1.6 E 28 35 15 19 1015.3 1015.4 0.0
20/03:30pm 15.6 11.7 12.2 80 1.9 E 24 35 13 19 1015.4 1015.5 0.0
20/03:00pm 15.8 11.6 12.5 81 1.8 ESE 26 37 14 20 1015.5 1015.6 0.0
20/02:30pm 15.9 11.3 12.3 79 2.0 ESE 28 37 15 20 1016.0 1016.1 0.0
20/02:00pm 16.0 12.0 12.9 82 1.7 ESE 26 37 14 20 1016.4 1016.5 0.0
20/01:30pm 15.3 11.2 12.6 84 1.5 ESE 26 33 14 18 1017.0 1017.0 0.0
20/01:00pm 15.1 9.8 12.6 85 1.4 E 32 39 17 21 1017.2 1017.2 0.0
20/12:30pm 15.0 10.0 12.3 84 1.5 ESE 30 39 16 21 1017.4 1017.4 0.0
20/12:00pm 15.0 9.7 12.5 85 1.4 ESE 32 43 17 23 1017.7 1017.7 0.0
20/11:30am 15.6 10.3 12.5 82 1.7 E 32 44 17 24 1018.0 1018.0 0.0
20/11:00am 15.6 9.5 12.9 84 1.5 ESE 37 46 20 25 1018.2 1018.2 0.0
20/10:30am 15.5 9.7 12.6 83 1.6 ESE 35 44 19 24 1018.3 1018.3 0.0
20/10:00am 15.8 11.0 12.9 83 1.6 ESE 30 43 16 23 1018.9 1018.9 0.0
20/09:30am 15.9 11.2 13.2 84 1.5 ESE 30 46 16 25 1019.0 1019.0 0.0
20/09:00am 15.2 9.9 12.5 84 1.5 E 32 43 17 23 1019.0 1019.0 0.0
20/08:30am 14.7 10.1 12.4 86 1.3 ESE 28 39 15 21 1019.1 1019.1 0.0
20/08:00am 15.1 10.2 12.6 85 1.4 ESE 30 41 16 22 1018.7 1018.7 0.0
20/07:30am 14.6 10.4 12.5 87 1.1 ESE 26 37 14 20 1018.8 1018.8 0.0
20/07:00am 14.1 9.5 12.3 89 1.0 ESE 28 37 15 20 1018.8 1018.8 0.0
20/06:30am 13.8 9.2 12.4 91 0.8 ESE 28 39 15 21 1018.8 1018.8 0.0
20/06:00am 13.9 9.0 12.5 91 0.8 ESE 30 39 16 21 1018.5 1018.5 0.0
20/05:42am 13.6 8.6 12.3 92 0.7 ESE 30 39 16 21 1018.3 1018.3 0.0
20/05:30am 13.6 8.6 12.3 92 0.7 ESE 30 41 16 22 1018.3 1018.3 0.0
20/05:00am 14.0 9.8 12.4 90 0.9 E 26 41 14 22 1018.2 1018.2 0.0
20/04:30am 14.2 9.3 12.4 89 1.0 ESE 30 39 16 21 1017.9 1017.9 0.0
20/04:00am 14.4 9.8 12.4 88 1.1 ESE 28 37 15 20 1017.9 1017.9 0.0
20/03:30am 14.5 10.0 12.5 88 1.1 E 28 37 15 20 1017.9 1017.9 0.0
20/03:00am 14.7 10.2 12.7 88 1.1 ESE 28 39 15 21 1017.9 1017.9 0.0
20/02:30am 14.4 10.3 12.6 89 1.0 ESE 26 35 14 19 1018.0 1018.0 0.0
20/02:00am 14.5 10.0 12.5 88 1.1 ESE 28 37 15 20 1018.2 1018.2 0.0
20/01:30am 14.5 10.0 12.7 89 1.0 ESE 28 37 15 20 1018.6 1018.6 0.0
20/01:00am 14.3 9.4 12.7 90 0.9 ESE 30 37 16 20 1018.8 1018.8 0.0
20/12:30am 14.4 9.6 13.0 91 0.8 ESE 30 39 16 21 1018.9 1018.9 0.0
20/12:00am 14.3 9.5 12.9 91 0.8 ESE 30 39 16 21 1019.2 1019.2 0.0
 
Date/Time
EST
Temp
°C
App
Temp
°C
Dew
Point
°C
Rel
Hum
%
Delta-T
°C
Wind Press
QNH
hPa
Press
MSL
hPa
Rain since
9am
mm
Dir  Spd
km/h
Gust
km/h
Spd
kts
Gust
kts
19/11:30pm 14.3 9.9 12.9 91 0.8 ESE 28 37 15 20 1019.2 1019.2 0.0
19/11:00pm 14.1 9.7 12.8 92 0.7 ESE 28 39 15 21 1019.4 1019.4 0.0
19/10:30pm 14.1 9.2 12.7 91 0.8 ESE 30 37 16 20 1019.6 1019.6 0.0
19/10:00pm 14.1 9.2 12.7 91 0.8 ESE 30 39 16 21 1019.4 1019.4 0.0
19/09:30pm 14.0 9.5 12.6 91 0.8 ESE 28 39 15 21 1019.5 1019.5 0.0
19/09:00pm 14.0 9.8 12.4 90 0.9 ESE 26 33 14 18 1019.8 1019.8 0.0
19/08:30pm 13.5 9.5 11.9 90 0.9 ESE 24 32 13 17 1019.8 1019.8 0.0
19/08:00pm 13.5 9.8 12.6 94 0.5 ESE 24 32 13 17 1019.5 1019.5 0.0
19/07:30pm 13.2 9.2 11.9 92 0.7 ESE 24 32 13 17 1019.2 1019.2 0.0
19/07:21pm 13.0 8.9 11.6 91 0.7 ESE 24 33 13 18 1019.1 1019.1 0.0
19/07:00pm 12.7 8.1 10.9 89 0.9 ESE 26 35 14 19 1019.3 1019.3 0.0
19/06:30pm 12.5 8.9 10.6 88 1.0 ESE 20 26 11 14 1019.2 1019.2 0.0
19/06:00pm 12.4 8.0 10.5 88 1.0 ESE 24 32 13 17 1019.1 1019.1 0.0
19/05:30pm 12.5 7.7 10.4 87 1.1 ESE 26 35 14 19 1019.4 1019.4 0.0
19/05:00pm 13.1 8.4 10.6 85 1.3 ESE 26 35 14 19 1019.6 1019.6 0.0
19/04:30pm 13.3 8.2 10.5 83 1.5 ESE 28 35 15 19 1019.8 1019.8 0.0
19/04:00pm 13.6 8.1 10.6 82 1.6 ESE 30 37 16 20 1020.0 1020.0 0.0
19/03:47pm 13.7 7.9 10.9 83 1.5 ESE 32 37 17 20 1020.1 1020.1 0.0
19/03:30pm 13.9 8.6 11.1 83 1.5 ESE 30 39 16 21 1020.1 1020.1 0.0
19/03:00pm 14.2 8.7 11.7 85 1.3 ESE 32 39 17 21 1020.4 1020.4 0.0
19/02:30pm 13.9 9.5 11.6 86 1.2 ESE 26 35 14 19 1020.9 1020.9 0.0
19/02:00pm 13.9 8.7 11.6 86 1.2 ESE 30 39 16 21 1021.2 1021.2 0.0
19/01:30pm 14.4 9.2 11.7 84 1.4 E 30 37 16 20 1021.6 1021.6 0.0
19/01:00pm 13.6 9.4 11.0 84 1.4 E 24 30 13 16 1022.3 1022.3 0.0
19/12:30pm 13.4 9.1 10.6 83 1.5 E 24 33 13 18 1022.5 1022.5 0.0
19/12:00pm 14.7 10.7 11.8 83 1.6 E 24 32 13 17 1023.0 1023.0 0.0
19/11:30am 13.6 9.2 10.4 81 1.7 E 24 37 13 20 1023.2 1023.2 0.0
19/11:00am 13.3 8.6 10.5 83 1.5 ESE 26 35 14 19 1023.6 1023.6 0.0
19/10:30am 12.6 8.2 10.5 87 1.1 E 24 35 13 19 1024.0 1024.0 0.0
19/10:00am 11.8 6.8 9.4 85 1.2 E 26 33 14 18 1024.3 1024.3 0.0
19/09:30am 12.2 7.6 9.8 85 1.2 ESE 24 41 13 22 1024.7 1024.7 0.0
19/09:16am 11.6 6.9 9.2 85 1.2 E 24 32 13 17 1025.0 1025.0 0.0
19/09:00am 11.9 7.1 8.9 82 1.5 E 24 35 13 19 1025.1 1025.1 0.0
19/08:30am 11.9 7.4 8.7 81 1.6 E 22 33 12 18 1025.0 1025.0 0.0
19/08:00am 10.6 8.5 8.2 85 1.2 ESE 9 17 5 9 1025.1 1025.1 0.0
19/07:30am 7.9 7.2 7.1 95 0.4 CALM 0 0 0 0 1025.1 1025.1 0.0
19/07:00am 6.5 4.4 5.9 96 0.3 SE 6 7 3 4 1025.0 1025.0 0.0
19/06:30am 3.8 0.6 2.8 93 0.4 S 9 9 5 5 1025.0 1025.0 0.0
19/06:00am 4.5 1.8 3.5 93 0.4 S 7 11 4 6 1025.0 1025.0 0.0
19/05:30am 4.9 2.3 4.2 95 0.3 SSE 7 11 4 6 1024.8 1024.8 0.0

Other formats

Comma delimited format used in spreadsheet applications
http://www.bom.gov.au/fwo/IDT60801/IDT60801.95957.axf

JavaScript Object Notation format (JSON) in row-major order
http://www.bom.gov.au/fwo/IDT60801/IDT60801.95957.json

Data quality

Most of these data are generated automatically and are frequently updated. Quality checks on data are not normally performed. It is possible for incorrect values to appear. Refer to information at About Latest Weather Observations and please check the disclaimer before using these data.